createdAt,value
2023-03-12T00:01:01.643Z,5.11
2023-03-12T00:03:30.020Z,5.15
2023-03-12T00:06:02.008Z,5.24
2023-03-12T00:08:38.787Z,5.25
2023-03-12T00:11:11.992Z,5.10
2023-03-12T00:13:40.561Z,5.20
2023-03-12T00:16:11.015Z,5.26
2023-03-12T00:18:39.718Z,5.11
2023-03-12T00:21:09.231Z,4.98
2023-03-12T00:23:38.991Z,4.84
2023-03-12T00:26:09.744Z,4.67
2023-03-12T00:28:38.636Z,4.30
2023-03-12T00:31:17.144Z,4.22
2023-03-12T00:33:45.788Z,4.16
2023-03-12T00:36:14.166Z,4.26
2023-03-12T00:38:43.872Z,4.25
2023-03-12T00:41:12.311Z,4.27
2023-03-12T00:43:40.543Z,4.32
2023-03-12T00:46:09.044Z,4.38
2023-03-12T00:48:37.212Z,4.31
2023-03-12T00:51:05.862Z,3.95
2023-03-12T00:53:34.248Z,4.00
2023-03-12T00:56:04.303Z,4.34
2023-03-12T00:58:32.596Z,4.33
2023-03-12T01:01:00.988Z,3.27
2023-03-12T01:03:29.272Z,4.15
2023-03-12T01:05:57.509Z,4.10
2023-03-12T01:08:25.754Z,3.93
2023-03-12T01:10:54.308Z,3.75
2023-03-12T01:13:24.382Z,3.15
2023-03-12T01:15:52.554Z,3.65
2023-03-12T01:18:20.829Z,3.49
2023-03-12T01:20:49.182Z,3.51
2023-03-12T01:23:17.482Z,3.54
2023-03-12T01:25:47.578Z,3.41
2023-03-12T01:28:15.887Z,3.39
2023-03-12T01:30:45.893Z,3.44
2023-03-12T01:33:14.058Z,3.31
2023-03-12T01:35:42.986Z,3.36
2023-03-12T01:38:15.043Z,3.32
2023-03-12T01:40:45.482Z,3.21
2023-03-12T01:43:32.625Z,3.20
2023-03-12T01:46:17.942Z,3.09
2023-03-12T01:48:51.226Z,2.74
2023-03-12T01:51:21.220Z,2.98
2023-03-12T01:53:54.369Z,2.90
2023-03-12T01:56:23.232Z,3.00
2023-03-12T01:58:55.979Z,3.00
2023-03-12T02:01:27.017Z,2.99
2023-03-12T02:03:57.221Z,2.99
2023-03-12T02:06:30.778Z,1.79
2023-03-12T02:09:01.992Z,3.00
2023-03-12T02:11:30.271Z,2.93
2023-03-12T02:13:58.671Z,2.62
2023-03-12T02:16:28.943Z,2.61
2023-03-12T02:18:58.730Z,2.53
2023-03-12T02:21:29.857Z,2.65
2023-03-12T02:24:04.838Z,2.75
2023-03-12T02:26:36.627Z,2.66
2023-03-12T02:29:06.229Z,2.65
2023-03-12T02:31:40.082Z,2.65
2023-03-12T02:34:08.797Z,2.72
2023-03-12T02:36:37.050Z,2.58
2023-03-12T02:39:06.056Z,2.54
2023-03-12T02:41:39.024Z,2.44
2023-03-12T02:44:11.580Z,2.23
2023-03-12T02:46:42.441Z,2.41
2023-03-12T02:49:13.411Z,2.09
2023-03-12T02:51:42.110Z,2.03
2023-03-12T02:54:10.860Z,2.46
2023-03-12T02:56:40.980Z,2.29
2023-03-12T02:59:10.797Z,2.46
2023-03-12T03:01:39.493Z,1.76
2023-03-12T03:04:09.830Z,2.24
2023-03-12T03:06:40.865Z,2.26
2023-03-12T03:09:09.146Z,1.91
2023-03-12T03:11:37.873Z,2.37
2023-03-12T03:14:07.776Z,2.27
2023-03-12T03:16:36.042Z,2.31
2023-03-12T03:19:04.744Z,2.31
2023-03-12T03:21:33.088Z,2.29
2023-03-12T03:24:01.256Z,2.02
2023-03-12T03:26:29.454Z,2.26
2023-03-12T03:28:57.756Z,2.31
2023-03-12T03:31:27.688Z,1.92
2023-03-12T03:33:56.013Z,2.28
2023-03-12T03:36:24.548Z,2.17
2023-03-12T03:38:52.790Z,2.00
2023-03-12T03:41:23.142Z,1.97
2023-03-12T03:43:51.289Z,2.18
2023-03-12T03:46:19.633Z,2.03
2023-03-12T03:48:51.054Z,1.99
2023-03-12T03:51:19.282Z,2.05
2023-03-12T03:53:47.540Z,2.10
2023-03-12T03:56:17.651Z,2.00
2023-03-12T03:58:45.929Z,2.17
2023-03-12T04:01:14.539Z,2.02
2023-03-12T04:03:42.826Z,1.82
2023-03-12T04:06:13.455Z,1.69
2023-03-12T04:08:41.795Z,1.78
2023-03-12T04:11:11.567Z,1.73
2023-03-12T04:13:40.388Z,1.87
2023-03-12T04:16:09.682Z,1.75
2023-03-12T04:18:38.170Z,1.49
2023-03-12T04:21:08.262Z,1.42
2023-03-12T04:23:38.343Z,1.57
2023-03-12T04:26:07.076Z,1.69
2023-03-12T04:28:35.900Z,1.67
2023-03-12T04:31:07.180Z,1.67
2023-03-12T04:33:37.806Z,1.65
2023-03-12T04:36:06.839Z,1.58
2023-03-12T04:38:35.567Z,1.13
2023-03-12T04:41:07.580Z,1.59
2023-03-12T04:43:37.016Z,1.53
2023-03-12T04:46:06.503Z,1.43
2023-03-12T04:48:35.681Z,1.25
2023-03-12T04:51:04.262Z,1.46
2023-03-12T04:53:32.688Z,1.54
2023-03-12T04:56:00.907Z,1.46
2023-03-12T04:58:30.522Z,1.35
2023-03-12T05:00:58.692Z,1.38
2023-03-12T05:03:26.911Z,1.34
2023-03-12T05:05:55.154Z,0.47
2023-03-12T05:08:23.335Z,1.29
2023-03-12T05:10:51.664Z,0.98
2023-03-12T05:13:21.932Z,1.38
2023-03-12T05:15:53.636Z,1.10
2023-03-12T05:18:21.946Z,1.03
2023-03-12T05:20:59.704Z,1.26
2023-03-12T05:23:27.925Z,0.98
2023-03-12T05:25:56.607Z,1.19
2023-03-12T05:28:28.602Z,0.99
2023-03-12T05:31:00.020Z,1.31
2023-03-12T05:33:29.630Z,1.40
2023-03-12T05:35:58.191Z,1.12
2023-03-12T05:38:26.480Z,1.42
2023-03-12T05:40:55.516Z,1.29
2023-03-12T05:43:24.702Z,1.43
2023-03-12T05:45:53.831Z,0.18
2023-03-12T05:48:23.431Z,1.22
2023-03-12T05:50:51.646Z,1.36
2023-03-12T05:53:19.907Z,1.42
2023-03-12T05:55:48.107Z,1.47
2023-03-12T05:58:16.736Z,1.55
2023-03-12T06:00:45.570Z,0.52
2023-03-12T06:03:14.512Z,1.69
2023-03-12T06:05:46.235Z,2.04
2023-03-12T06:08:14.425Z,2.08
2023-03-12T06:10:43.039Z,2.39
2023-03-12T06:13:11.769Z,2.39
2023-03-12T06:15:39.924Z,2.49
2023-03-12T06:18:08.102Z,2.53
2023-03-12T06:20:36.284Z,2.64
2023-03-12T06:23:05.879Z,2.73
2023-03-12T06:25:34.199Z,2.74
2023-03-12T06:28:02.488Z,2.95
2023-03-12T06:30:30.607Z,3.16
2023-03-12T06:32:58.794Z,3.23
2023-03-12T06:35:26.937Z,3.31
2023-03-12T06:37:55.082Z,3.44
2023-03-12T06:40:24.783Z,3.40
2023-03-12T06:42:53.015Z,3.63
2023-03-12T06:45:21.239Z,3.74
2023-03-12T06:47:49.434Z,3.77
2023-03-12T06:50:18.091Z,4.04
2023-03-12T06:52:46.196Z,4.16
2023-03-12T06:55:14.445Z,3.96
2023-03-12T06:57:43.982Z,4.11
2023-03-12T07:00:13.475Z,4.44
2023-03-12T07:02:41.609Z,4.45
2023-03-12T07:05:11.015Z,4.51
2023-03-12T07:07:39.201Z,4.66
2023-03-12T07:10:08.048Z,4.68
2023-03-12T07:12:36.734Z,4.82
2023-03-12T07:15:07.444Z,4.85
2023-03-12T07:17:35.565Z,4.92
2023-03-12T07:20:03.757Z,4.94
2023-03-12T07:22:31.974Z,4.86
2023-03-12T07:25:00.303Z,4.60
2023-03-12T07:27:28.487Z,4.10
2023-03-12T07:29:56.646Z,4.13
2023-03-12T07:32:26.442Z,4.15
2023-03-12T07:34:54.663Z,3.54
2023-03-12T07:37:23.287Z,4.41
2023-03-12T07:39:54.232Z,4.64
2023-03-12T07:42:22.612Z,4.88
2023-03-12T07:44:50.811Z,4.83
2023-03-12T07:47:23.964Z,4.96
2023-03-12T07:49:54.392Z,4.98
2023-03-12T07:52:23.774Z,4.99
2023-03-12T07:54:52.875Z,5.13
2023-03-12T07:57:21.237Z,4.83
2023-03-12T07:59:50.120Z,5.15
2023-03-12T08:02:18.836Z,5.08
2023-03-12T08:04:47.004Z,5.13
2023-03-12T08:07:16.971Z,5.08
2023-03-12T08:09:45.669Z,5.06
2023-03-12T08:12:14.007Z,5.10
2023-03-12T08:14:42.597Z,5.27
2023-03-12T08:17:11.746Z,5.29
2023-03-12T08:19:40.029Z,5.66
2023-03-12T08:22:08.344Z,5.44
2023-03-12T08:24:37.914Z,6.11
2023-03-12T08:27:06.186Z,6.31
2023-03-12T08:29:34.598Z,6.32
2023-03-12T08:32:05.216Z,6.28
2023-03-12T08:34:34.210Z,6.10
2023-03-12T08:37:03.118Z,6.40
2023-03-12T08:39:31.601Z,6.56
2023-03-12T08:42:01.465Z,6.54
2023-03-12T08:44:30.044Z,6.27
2023-03-12T08:46:58.271Z,6.49
2023-03-12T08:49:26.726Z,6.60
2023-03-12T08:51:54.837Z,6.38
2023-03-12T08:54:23.211Z,6.53
2023-03-12T08:56:52.455Z,6.71
2023-03-12T08:59:23.584Z,6.83
2023-03-12T09:01:52.635Z,6.15
2023-03-12T09:04:21.121Z,6.68
2023-03-12T09:06:49.486Z,6.70
2023-03-12T09:09:17.763Z,6.76
2023-03-12T09:11:45.942Z,6.22
2023-03-12T09:14:57.578Z,6.93
2023-03-12T09:17:04.278Z,6.89
2023-03-12T09:19:32.661Z,7.00
2023-03-12T09:22:00.813Z,7.15
2023-03-12T09:24:29.036Z,7.18
2023-03-12T09:26:57.228Z,6.95
2023-03-12T09:29:25.481Z,7.07
2023-03-12T09:31:53.727Z,7.01
2023-03-12T09:34:23.610Z,7.13
2023-03-12T09:36:52.288Z,7.32
2023-03-12T09:39:21.584Z,7.25
2023-03-12T09:41:51.015Z,7.50
2023-03-12T09:44:26.865Z,7.32
2023-03-12T09:46:58.302Z,8.01
2023-03-12T09:49:35.969Z,8.06
2023-03-12T09:52:09.417Z,8.14
2023-03-12T09:54:44.767Z,8.23
2023-03-12T09:57:21.955Z,8.30
2023-03-12T09:59:51.048Z,8.23
2023-03-12T10:02:56.123Z,8.07
2023-03-12T10:05:37.999Z,7.90
2023-03-12T10:08:23.952Z,8.28
2023-03-12T10:10:57.490Z,8.13
2023-03-12T10:13:39.222Z,8.00
2023-03-12T10:16:17.451Z,8.07
2023-03-12T10:19:03.616Z,7.95
2023-03-12T10:21:40.316Z,8.56
2023-03-12T10:24:25.470Z,8.87
2023-03-12T10:26:56.776Z,9.10
2023-03-12T10:29:29.700Z,9.26
2023-03-12T10:32:03.827Z,9.35
2023-03-12T10:34:40.371Z,9.50
2023-03-12T10:37:18.485Z,9.16
2023-03-12T10:39:47.320Z,8.29
2023-03-12T10:42:18.696Z,8.67
2023-03-12T10:44:50.243Z,8.96
2023-03-12T10:47:31.815Z,9.17
2023-03-12T10:50:13.854Z,9.38
2023-03-12T10:52:43.832Z,9.39
2023-03-12T10:55:15.596Z,9.48
2023-03-12T10:57:44.171Z,9.12
2023-03-12T11:00:21.044Z,9.54
2023-03-12T11:02:58.869Z,9.97
2023-03-12T11:05:29.640Z,9.91
2023-03-12T11:08:02.086Z,9.89
2023-03-12T11:10:44.051Z,9.79
2023-03-12T11:13:31.307Z,9.63
2023-03-12T11:16:01.448Z,9.27
2023-03-12T11:18:37.532Z,8.86
2023-03-12T11:21:18.534Z,9.30
2023-03-12T11:24:07.434Z,9.13
2023-03-12T11:26:41.085Z,9.08
2023-03-12T11:29:21.327Z,8.98
2023-03-12T11:31:59.161Z,9.25
2023-03-12T11:34:30.955Z,9.58
2023-03-12T11:37:07.737Z,9.20
2023-03-12T11:39:49.539Z,9.15
2023-03-12T11:42:28.422Z,9.10
2023-03-12T11:45:07.073Z,9.87
2023-03-12T11:48:00.881Z,10.19
2023-03-12T11:50:43.573Z,9.63
2023-03-12T11:53:40.105Z,10.21
2023-03-12T11:56:27.578Z,10.46
2023-03-12T11:59:12.656Z,10.78
2023-03-12T12:01:53.010Z,11.04
2023-03-12T12:04:50.690Z,11.21
2023-03-12T12:07:26.389Z,11.45
2023-03-12T12:10:03.224Z,10.95
2023-03-12T12:12:45.412Z,9.91
2023-03-12T12:15:27.336Z,10.40
2023-03-12T12:18:06.881Z,10.85
2023-03-12T12:20:45.256Z,10.74
2023-03-12T12:23:19.226Z,10.95
2023-03-12T12:26:07.169Z,10.96
2023-03-12T12:28:58.237Z,10.56
2023-03-12T12:31:32.452Z,10.75
2023-03-12T12:34:33.241Z,11.16
2023-03-12T12:37:15.877Z,11.30
2023-03-12T12:39:48.999Z,10.94
2023-03-12T12:42:23.100Z,11.37
2023-03-12T12:44:55.946Z,11.38
2023-03-12T12:47:31.383Z,11.11
2023-03-12T12:50:00.445Z,10.98
2023-03-12T12:52:29.769Z,10.85
2023-03-12T12:55:06.918Z,11.00
2023-03-12T12:57:42.687Z,11.21
2023-03-12T13:00:24.847Z,11.14
2023-03-12T13:02:56.533Z,11.15
2023-03-12T13:05:29.521Z,11.37
2023-03-12T13:07:58.065Z,11.52
2023-03-12T13:10:48.935Z,10.69
2023-03-12T13:13:27.420Z,11.23
2023-03-12T13:16:19.756Z,11.73
2023-03-12T13:18:58.293Z,11.15
2023-03-12T13:21:32.298Z,11.22
2023-03-12T13:24:13.666Z,11.20
2023-03-12T13:26:54.138Z,11.52
2023-03-12T13:29:37.261Z,11.92
2023-03-12T13:32:10.363Z,11.97
2023-03-12T13:34:48.250Z,11.99
2023-03-12T13:37:28.131Z,12.21
2023-03-12T13:39:56.329Z,12.51
2023-03-12T13:42:37.525Z,12.94
2023-03-12T13:45:31.802Z,13.17
2023-03-12T13:48:06.393Z,13.70
2023-03-12T13:50:52.134Z,13.82
2023-03-12T13:53:26.004Z,14.01
2023-03-12T13:56:04.849Z,13.58
2023-03-12T13:58:33.623Z,13.42
2023-03-12T14:01:05.155Z,13.52
2023-03-12T14:03:40.308Z,13.11
2023-03-12T14:06:13.611Z,13.33
2023-03-12T14:08:59.350Z,13.72
2023-03-12T14:11:42.302Z,13.95
2023-03-12T14:14:41.624Z,14.21
2023-03-12T14:17:18.514Z,13.61
2023-03-12T14:19:52.494Z,15.05
2023-03-12T14:22:24.061Z,14.75
2023-03-12T14:24:57.246Z,15.66
2023-03-12T14:27:28.997Z,15.63
2023-03-12T14:29:59.739Z,16.07
2023-03-12T14:32:32.038Z,18.26
2023-03-12T14:35:18.391Z,20.03
2023-03-12T14:37:54.026Z,20.86
2023-03-12T14:40:26.915Z,21.46
2023-03-12T14:42:56.766Z,21.44
2023-03-12T14:45:27.240Z,21.21
2023-03-12T14:47:58.817Z,20.75
2023-03-12T14:50:31.277Z,20.13
2023-03-12T14:53:14.148Z,19.99
2023-03-12T14:55:42.468Z,19.63
2023-03-12T14:58:18.370Z,18.80
2023-03-12T15:00:57.650Z,18.31
2023-03-12T15:03:27.397Z,18.16
2023-03-12T15:05:57.864Z,18.27
2023-03-12T15:08:26.634Z,18.18
2023-03-12T15:10:58.684Z,19.59
2023-03-12T15:13:28.654Z,20.30
2023-03-12T15:15:57.510Z,20.75
2023-03-12T15:18:29.556Z,22.48
2023-03-12T15:21:00.844Z,22.71
2023-03-12T15:23:32.128Z,22.91
2023-03-12T15:26:15.720Z,23.26
2023-03-12T15:28:44.202Z,23.64
2023-03-12T15:31:15.587Z,23.75
2023-03-12T15:33:45.705Z,22.31
2023-03-12T15:36:27.246Z,21.03
2023-03-12T15:38:58.280Z,17.50
2023-03-12T15:41:33.974Z,19.24
2023-03-12T15:44:02.479Z,17.35
2023-03-12T15:46:30.828Z,15.35
2023-03-12T15:49:02.119Z,14.16
2023-03-12T15:51:37.108Z,13.09
2023-03-12T15:54:22.142Z,12.28
2023-03-12T15:56:50.343Z,11.24
2023-03-12T15:59:25.976Z,10.97
2023-03-12T16:01:55.468Z,10.50
2023-03-12T16:04:25.071Z,10.46
2023-03-12T16:06:54.768Z,10.38
2023-03-12T16:09:26.405Z,10.34
2023-03-12T16:11:56.250Z,10.10
2023-03-12T16:14:28.592Z,10.37
2023-03-12T16:16:56.880Z,10.27
2023-03-12T16:19:29.286Z,10.24
2023-03-12T16:22:01.286Z,10.16
2023-03-12T16:24:29.278Z,8.14
2023-03-12T16:26:58.715Z,9.96
2023-03-12T16:29:29.128Z,9.85
2023-03-12T16:31:57.409Z,9.68
2023-03-12T16:34:25.327Z,9.48
2023-03-12T16:36:53.588Z,9.44
2023-03-12T16:39:23.158Z,9.42
2023-03-12T16:41:51.324Z,9.27
2023-03-12T16:44:22.871Z,9.07
2023-03-12T16:46:51.119Z,8.86
2023-03-12T16:49:21.084Z,8.70
2023-03-12T16:51:49.419Z,8.54
2023-03-12T16:54:17.560Z,8.63
2023-03-12T16:56:49.351Z,7.78
2023-03-12T16:59:25.880Z,7.52
2023-03-12T17:01:54.721Z,8.23
2023-03-12T17:04:23.015Z,8.28
2023-03-12T17:06:51.247Z,8.20
2023-03-12T17:09:20.687Z,8.18
2023-03-12T17:11:52.995Z,8.22
2023-03-12T17:14:23.553Z,8.13
2023-03-12T17:16:52.020Z,8.06
2023-03-12T17:19:20.180Z,7.08
2023-03-12T17:21:49.074Z,7.71
2023-03-12T17:24:17.328Z,7.58
2023-03-12T17:26:46.557Z,7.67
2023-03-12T17:29:16.270Z,7.74
2023-03-12T17:31:44.976Z,7.80
2023-03-12T17:34:13.670Z,7.77
2023-03-12T17:36:42.229Z,7.83
2023-03-12T17:39:10.581Z,7.75
2023-03-12T17:41:39.330Z,7.52
2023-03-12T17:44:07.493Z,7.01
2023-03-12T17:46:39.244Z,7.28
2023-03-12T17:49:10.847Z,7.05
2023-03-12T17:51:39.405Z,7.13
2023-03-12T17:54:07.704Z,7.31
2023-03-12T17:56:36.157Z,6.80
2023-03-12T17:59:04.509Z,7.41
2023-03-12T18:01:32.698Z,7.37
2023-03-12T18:04:02.230Z,7.30
2023-03-12T18:06:30.375Z,7.19
2023-03-12T18:08:58.492Z,6.97
2023-03-12T18:11:26.728Z,6.65
2023-03-12T18:13:55.103Z,6.13
2023-03-12T18:16:23.307Z,6.83
2023-03-12T18:18:52.822Z,6.68
2023-03-12T18:21:22.713Z,6.78
2023-03-12T18:23:53.245Z,6.83
2023-03-12T18:26:23.016Z,6.79
2023-03-12T18:28:51.434Z,4.20
2023-03-12T18:31:22.011Z,6.70
2023-03-12T18:33:50.417Z,6.68
2023-03-12T18:36:18.584Z,6.58
2023-03-12T18:38:48.531Z,6.53
2023-03-12T18:41:16.773Z,6.65
2023-03-12T18:43:45.108Z,6.27
2023-03-12T18:46:13.216Z,6.72
2023-03-12T18:48:43.901Z,6.58
2023-03-12T18:51:12.585Z,6.49
2023-03-12T18:53:40.512Z,6.51
2023-03-12T18:56:09.834Z,6.47
2023-03-12T18:58:38.095Z,6.37
2023-03-12T19:01:06.155Z,6.26
2023-03-12T19:03:36.607Z,5.93
2023-03-12T19:06:07.276Z,6.12
2023-03-12T19:08:37.374Z,5.99
2023-03-12T19:11:06.771Z,5.29
2023-03-12T19:13:36.464Z,5.99
2023-03-12T19:16:07.053Z,5.93
2023-03-12T19:18:35.274Z,5.91
2023-03-12T19:21:03.654Z,5.91
2023-03-12T19:23:32.031Z,5.71
2023-03-12T19:26:00.401Z,5.73
2023-03-12T19:28:28.658Z,5.69
2023-03-12T19:31:02.108Z,5.55
2023-03-12T19:33:30.570Z,5.68
2023-03-12T19:35:59.122Z,5.48
2023-03-12T19:38:27.674Z,5.69
2023-03-12T19:40:57.599Z,5.65
2023-03-12T19:43:26.436Z,5.62
2023-03-12T19:45:56.592Z,5.67
2023-03-12T19:48:26.522Z,5.32
2023-03-12T19:50:56.092Z,5.40
2023-03-12T19:53:24.507Z,5.46
2023-03-12T19:55:53.285Z,5.12
2023-03-12T19:58:21.538Z,5.20
2023-03-12T20:00:50.227Z,5.18
2023-03-12T20:03:18.362Z,5.25
2023-03-12T20:05:48.162Z,5.23
2023-03-12T20:08:16.342Z,4.63
2023-03-12T20:10:44.633Z,5.12
2023-03-12T20:13:17.578Z,4.90
2023-03-12T20:15:49.066Z,4.19
2023-03-12T20:18:17.906Z,5.09
2023-03-12T20:20:48.468Z,4.91
2023-03-12T20:23:16.862Z,4.87
2023-03-12T20:25:48.907Z,4.81
2023-03-12T20:28:17.836Z,4.93
2023-03-12T20:30:46.760Z,4.28
2023-03-12T20:33:15.428Z,4.96
2023-03-12T20:35:43.699Z,4.90
2023-03-12T20:38:13.461Z,5.08
2023-03-12T20:40:45.442Z,5.05
2023-03-12T20:43:13.748Z,4.84
2023-03-12T20:45:42.083Z,4.30
2023-03-12T20:48:12.066Z,3.98
2023-03-12T20:50:40.631Z,4.59
2023-03-12T20:53:09.048Z,4.68
2023-03-12T20:55:40.779Z,4.59
2023-03-12T20:58:09.102Z,4.73
2023-03-12T21:00:37.279Z,4.56
2023-03-12T21:03:05.570Z,4.67
2023-03-12T21:05:33.975Z,4.10
2023-03-12T21:08:02.188Z,4.56
2023-03-12T21:10:31.616Z,4.71
2023-03-12T21:13:01.500Z,3.42
2023-03-12T21:15:29.869Z,4.60
2023-03-12T21:17:58.134Z,4.60
2023-03-12T21:20:26.461Z,4.40
2023-03-12T21:22:54.628Z,4.54
2023-03-12T21:25:22.821Z,4.67
2023-03-12T21:27:51.918Z,4.68
2023-03-12T21:30:21.836Z,4.65
2023-03-12T21:32:50.025Z,4.65
2023-03-12T21:35:20.081Z,4.66
2023-03-12T21:37:48.372Z,4.49
2023-03-12T21:40:17.180Z,4.52
2023-03-12T21:42:45.433Z,4.01
2023-03-12T21:45:13.606Z,4.45
2023-03-12T21:47:43.142Z,3.44
2023-03-12T21:50:12.524Z,4.35
2023-03-12T21:52:43.581Z,4.15
2023-03-12T21:55:12.402Z,4.13
2023-03-12T21:57:40.642Z,4.12
2023-03-12T22:00:14.059Z,4.07
2023-03-12T22:02:44.933Z,4.05
2023-03-12T22:05:13.603Z,4.02
2023-03-12T22:07:41.787Z,4.00
2023-03-12T22:10:12.153Z,3.94
2023-03-12T22:12:40.656Z,4.01
2023-03-12T22:15:09.882Z,3.97
2023-03-12T22:17:38.043Z,4.00
2023-03-12T22:20:09.261Z,3.88
2023-03-12T22:22:37.493Z,3.87
2023-03-12T22:25:06.366Z,3.98
2023-03-12T22:27:34.505Z,3.96
2023-03-12T22:30:02.669Z,3.99
2023-03-12T22:32:31.710Z,4.06
2023-03-12T22:34:59.904Z,4.06
2023-03-12T22:37:29.507Z,3.84
2023-03-12T22:40:01.627Z,3.82
2023-03-12T22:42:29.854Z,3.97
2023-03-12T22:44:58.001Z,3.95
2023-03-12T22:47:26.169Z,3.84
2023-03-12T22:49:57.614Z,3.76
2023-03-12T22:52:25.805Z,3.75
2023-03-12T22:54:55.362Z,3.70
2023-03-12T22:57:23.657Z,3.74
2023-03-12T22:59:51.856Z,3.68
2023-03-12T23:02:19.962Z,3.59
2023-03-12T23:04:48.103Z,3.59
2023-03-12T23:07:16.586Z,3.78
2023-03-12T23:09:45.431Z,3.69
2023-03-12T23:12:14.986Z,3.75
2023-03-12T23:14:43.114Z,3.77
2023-03-12T23:17:11.314Z,3.74
2023-03-12T23:19:39.494Z,3.54
2023-03-12T23:22:08.507Z,3.59
2023-03-12T23:24:36.861Z,3.45
2023-03-12T23:27:05.425Z,3.21
2023-03-12T23:29:35.668Z,3.38
2023-03-12T23:32:03.859Z,3.29
2023-03-12T23:34:32.029Z,3.41
2023-03-12T23:37:00.350Z,3.39
2023-03-12T23:39:30.304Z,3.44
2023-03-12T23:41:58.675Z,3.58
2023-03-12T23:44:26.763Z,3.39
2023-03-12T23:46:56.336Z,3.48
2023-03-12T23:49:24.507Z,3.46
2023-03-12T23:51:52.639Z,3.30
2023-03-12T23:54:20.777Z,3.26
2023-03-12T23:56:48.942Z,3.19
2023-03-12T23:59:17.084Z,3.32
